createdAt,value
2018-09-26T00:01:29.024Z,6.55
2018-09-26T00:04:02.031Z,6.72
2018-09-26T00:06:30.859Z,6.81
2018-09-26T00:08:59.420Z,6.86
2018-09-26T00:11:27.937Z,6.78
2018-09-26T00:13:56.482Z,6.84
2018-09-26T00:16:25.020Z,6.80
2018-09-26T00:18:53.897Z,6.69
2018-09-26T00:21:22.430Z,6.73
2018-09-26T00:23:50.990Z,6.86
2018-09-26T00:26:19.858Z,7.01
2018-09-26T00:28:48.398Z,7.08
2018-09-26T00:31:16.918Z,7.05
2018-09-26T00:33:45.491Z,7.17
2018-09-26T00:36:14.055Z,7.03
2018-09-26T00:38:42.552Z,7.18
2018-09-26T00:41:11.097Z,7.11
2018-09-26T00:43:39.667Z,7.02
2018-09-26T00:46:09.066Z,7.16
2018-09-26T00:48:37.682Z,7.17
2018-09-26T00:51:06.494Z,6.59
2018-09-26T00:53:35.095Z,6.54
2018-09-26T00:56:03.678Z,6.16
2018-09-26T00:58:32.338Z,5.98
2018-09-26T01:01:01.150Z,5.22
2018-09-26T01:03:29.718Z,4.96
2018-09-26T01:05:58.235Z,4.85
2018-09-26T01:08:26.773Z,4.64
2018-09-26T01:10:55.340Z,4.56
2018-09-26T01:13:23.866Z,4.76
2018-09-26T01:15:52.430Z,4.58
2018-09-26T01:18:20.967Z,4.77
2018-09-26T01:20:50.710Z,5.29
2018-09-26T01:23:19.239Z,5.74
2018-09-26T01:25:47.803Z,6.12
2018-09-26T01:28:16.334Z,6.15
2018-09-26T01:30:44.895Z,6.06
2018-09-26T01:33:13.433Z,6.23
2018-09-26T01:35:41.997Z,6.21
2018-09-26T01:38:10.554Z,6.21
2018-09-26T01:40:39.118Z,6.14
2018-09-26T01:43:07.655Z,5.71
2018-09-26T01:45:36.223Z,5.15
2018-09-26T01:48:04.921Z,4.78
2018-09-26T01:50:33.488Z,4.71
2018-09-26T01:53:02.005Z,4.57
2018-09-26T01:55:30.571Z,4.65
2018-09-26T01:57:59.098Z,4.63
2018-09-26T02:00:27.686Z,4.60
2018-09-26T02:02:56.206Z,4.49
2018-09-26T02:05:24.792Z,4.44
2018-09-26T02:07:53.328Z,4.28
2018-09-26T02:10:21.881Z,4.08
2018-09-26T02:12:50.402Z,4.07
2018-09-26T02:15:18.965Z,4.01
2018-09-26T02:17:47.558Z,3.98
2018-09-26T02:20:16.149Z,3.99
2018-09-26T02:22:44.699Z,3.98
2018-09-26T02:25:13.276Z,4.05
2018-09-26T02:27:41.818Z,4.55
2018-09-26T02:30:10.387Z,4.64
2018-09-26T02:32:38.982Z,4.78
2018-09-26T02:35:07.586Z,4.98
2018-09-26T02:37:36.141Z,4.96
2018-09-26T02:40:04.791Z,5.45
2018-09-26T02:42:33.358Z,5.53
2018-09-26T02:45:01.909Z,5.38
2018-09-26T02:47:30.457Z,5.38
2018-09-26T02:49:58.998Z,5.77
2018-09-26T02:52:27.576Z,5.58
2018-09-26T02:54:56.106Z,5.66
2018-09-26T02:57:24.870Z,5.81
2018-09-26T02:59:53.410Z,6.16
2018-09-26T03:02:22.202Z,6.24
2018-09-26T03:04:50.821Z,6.24
2018-09-26T03:07:19.386Z,6.36
2018-09-26T03:09:47.962Z,6.29
2018-09-26T03:12:16.530Z,6.44
2018-09-26T03:14:45.072Z,6.41
2018-09-26T03:17:13.663Z,6.46
2018-09-26T03:19:42.237Z,6.60
2018-09-26T03:22:10.818Z,6.52
2018-09-26T03:24:39.357Z,6.71
2018-09-26T03:27:07.949Z,6.52
2018-09-26T03:29:36.482Z,6.61
2018-09-26T03:32:05.067Z,6.60
2018-09-26T03:34:33.615Z,6.71
2018-09-26T03:37:02.166Z,6.70
2018-09-26T03:39:30.721Z,5.68
2018-09-26T03:41:59.294Z,5.27
2018-09-26T03:44:27.859Z,5.03
2018-09-26T03:46:56.441Z,4.82
2018-09-26T03:49:24.995Z,4.62
2018-09-26T03:51:53.586Z,4.76
2018-09-26T03:54:22.130Z,4.78
2018-09-26T03:56:50.717Z,4.64
2018-09-26T03:59:19.284Z,4.43
2018-09-26T04:01:47.867Z,4.29
2018-09-26T04:04:16.399Z,4.20
2018-09-26T04:06:44.974Z,4.63
2018-09-26T04:09:13.513Z,5.18
2018-09-26T04:11:42.077Z,5.00
2018-09-26T04:14:10.667Z,5.24
2018-09-26T04:16:42.476Z,5.17
2018-09-26T04:19:18.417Z,4.76
2018-09-26T04:21:50.766Z,4.60
2018-09-26T04:24:23.161Z,4.46
2018-09-26T04:26:54.676Z,4.46
2018-09-26T04:29:24.022Z,4.27
2018-09-26T04:31:52.667Z,4.26
2018-09-26T04:34:21.209Z,4.31
2018-09-26T04:36:53.616Z,4.17
2018-09-26T04:39:26.391Z,4.13
2018-09-26T04:41:55.043Z,4.16
2018-09-26T04:44:23.609Z,4.27
2018-09-26T04:46:52.564Z,4.14
2018-09-26T04:49:23.055Z,4.11
2018-09-26T04:51:51.622Z,4.13
2018-09-26T04:54:20.157Z,4.11
2018-09-26T04:56:48.852Z,3.95
2018-09-26T04:59:17.409Z,3.88
2018-09-26T05:01:45.982Z,3.87
2018-09-26T05:04:14.546Z,3.74
2018-09-26T05:06:43.111Z,3.74
2018-09-26T05:09:11.930Z,3.69
2018-09-26T05:11:40.482Z,3.68
2018-09-26T05:14:09.355Z,3.63
2018-09-26T05:16:37.913Z,3.51
2018-09-26T05:19:07.018Z,3.43
2018-09-26T05:21:35.990Z,3.40
2018-09-26T05:24:04.587Z,3.17
2018-09-26T05:26:33.162Z,3.19
2018-09-26T05:29:01.823Z,3.09
2018-09-26T05:31:30.389Z,3.12
2018-09-26T05:33:58.951Z,3.09
2018-09-26T05:36:27.581Z,3.21
2018-09-26T05:38:56.182Z,3.20
2018-09-26T05:41:24.736Z,3.23
2018-09-26T05:43:53.329Z,3.24
2018-09-26T05:46:22.157Z,3.28
2018-09-26T05:48:50.821Z,3.42
2018-09-26T05:51:19.349Z,3.48
2018-09-26T05:53:47.905Z,3.63
2018-09-26T05:56:16.765Z,3.79
2018-09-26T05:58:45.338Z,4.02
2018-09-26T06:01:13.871Z,4.17
2018-09-26T06:03:42.441Z,4.09
2018-09-26T06:06:11.022Z,4.22
2018-09-26T06:08:39.586Z,4.34
2018-09-26T06:11:08.136Z,4.44
2018-09-26T06:13:36.714Z,4.74
2018-09-26T06:16:05.294Z,4.81
2018-09-26T06:18:34.150Z,4.82
2018-09-26T06:21:02.697Z,4.95
2018-09-26T06:23:31.275Z,5.15
2018-09-26T06:25:59.837Z,5.36
2018-09-26T06:28:28.451Z,5.69
2018-09-26T06:30:57.021Z,5.66
2018-09-26T06:33:25.594Z,5.76
2018-09-26T06:35:54.167Z,5.84
2018-09-26T06:38:22.927Z,5.89
2018-09-26T06:40:51.503Z,6.20
2018-09-26T06:43:20.082Z,6.55
2018-09-26T06:45:48.928Z,7.16
2018-09-26T06:48:17.957Z,7.57
2018-09-26T06:50:46.546Z,7.85
2018-09-26T06:53:15.263Z,7.54
2018-09-26T06:55:43.823Z,7.53
2018-09-26T06:58:12.386Z,8.00
2018-09-26T07:00:41.114Z,8.49
2018-09-26T07:03:09.659Z,8.79
2018-09-26T07:05:38.220Z,8.88
2018-09-26T07:08:07.050Z,8.98
2018-09-26T07:10:35.618Z,9.27
2018-09-26T07:13:04.193Z,9.74
2018-09-26T07:15:32.769Z,9.78
2018-09-26T07:18:01.334Z,9.89
2018-09-26T07:20:30.503Z,10.17
2018-09-26T07:22:59.109Z,10.95
2018-09-26T07:25:27.693Z,11.22
2018-09-26T07:27:56.265Z,11.72
2018-09-26T07:30:25.159Z,12.31
2018-09-26T07:32:54.036Z,12.41
2018-09-26T07:35:22.634Z,12.16
2018-09-26T07:37:51.198Z,12.82
2018-09-26T07:40:19.805Z,13.00
2018-09-26T07:42:48.365Z,12.96
2018-09-26T07:45:17.013Z,13.19
2018-09-26T07:47:45.521Z,13.59
2018-09-26T07:50:14.122Z,15.19
2018-09-26T07:52:42.670Z,15.90
2018-09-26T07:55:11.237Z,15.54
2018-09-26T07:57:39.823Z,13.96
2018-09-26T08:00:08.762Z,14.58
2018-09-26T08:02:37.349Z,15.88
2018-09-26T08:05:05.958Z,16.67
2018-09-26T08:07:34.537Z,17.68
2018-09-26T08:10:03.392Z,18.46
2018-09-26T08:12:31.968Z,19.33
2018-09-26T08:15:00.521Z,20.50
2018-09-26T08:17:29.103Z,19.53
2018-09-26T08:19:57.768Z,21.66
2018-09-26T08:22:26.364Z,21.63
2018-09-26T08:24:55.241Z,23.06
2018-09-26T08:27:23.837Z,22.74
2018-09-26T08:29:52.438Z,22.60
2018-09-26T08:32:20.988Z,21.88
2018-09-26T08:34:49.564Z,20.65
2018-09-26T08:37:18.202Z,20.92
2018-09-26T08:39:46.744Z,20.95
2018-09-26T08:42:15.318Z,20.40
2018-09-26T08:44:43.898Z,22.31
2018-09-26T08:47:12.478Z,23.39
2018-09-26T08:49:41.030Z,21.24
2018-09-26T08:52:09.610Z,19.14
2018-09-26T08:54:38.161Z,19.85
2018-09-26T08:57:06.855Z,21.01
2018-09-26T08:59:35.459Z,21.41
2018-09-26T09:02:04.020Z,22.78
2018-09-26T09:04:32.557Z,24.59
2018-09-26T09:07:01.138Z,25.40
2018-09-26T09:09:29.686Z,25.89
2018-09-26T09:11:58.259Z,27.86
2018-09-26T09:15:51.151Z,28.02
2018-09-26T09:18:19.722Z,25.35
2018-09-26T09:20:48.275Z,24.62
2018-09-26T09:23:16.864Z,25.98
2018-09-26T09:25:45.433Z,24.72
2018-09-26T09:28:14.006Z,24.83
2018-09-26T09:30:42.549Z,22.61
2018-09-26T09:33:11.130Z,24.20
2018-09-26T09:35:39.691Z,25.34
2018-09-26T09:38:08.292Z,24.19
2018-09-26T09:40:36.849Z,22.33
2018-09-26T09:43:05.417Z,22.82
2018-09-26T09:45:33.986Z,23.35
2018-09-26T09:48:02.541Z,24.06
2018-09-26T09:50:31.105Z,21.66
2018-09-26T09:52:59.674Z,22.68
2018-09-26T09:55:28.230Z,21.63
2018-09-26T09:57:57.033Z,21.52
2018-09-26T10:00:30.757Z,21.62
2018-09-26T10:03:00.156Z,21.83
2018-09-26T10:05:28.570Z,22.25
2018-09-26T10:07:57.150Z,23.58
2018-09-26T10:10:26.425Z,24.20
2018-09-26T10:12:54.994Z,24.13
2018-09-26T10:15:23.560Z,24.71
2018-09-26T10:17:52.163Z,25.32
2018-09-26T10:20:20.752Z,25.86
2018-09-26T10:22:49.329Z,24.93
2018-09-26T10:25:17.943Z,25.15
2018-09-26T10:27:46.462Z,25.86
2018-09-26T10:30:15.021Z,26.14
2018-09-26T10:32:44.107Z,24.71
2018-09-26T10:35:12.662Z,24.45
2018-09-26T10:37:42.173Z,22.09
2018-09-26T10:40:11.106Z,22.09
2018-09-26T10:42:39.846Z,20.38
2018-09-26T10:45:08.439Z,21.63
2018-09-26T10:47:37.105Z,20.06
2018-09-26T10:50:06.100Z,21.00
2018-09-26T10:52:34.657Z,21.28
2018-09-26T10:55:03.258Z,19.94
2018-09-26T10:57:31.833Z,23.55
2018-09-26T11:00:00.418Z,24.00
2018-09-26T11:02:29.120Z,25.46
2018-09-26T11:04:57.653Z,26.65
2018-09-26T11:07:26.202Z,25.28
2018-09-26T11:09:54.979Z,26.55
2018-09-26T11:12:23.597Z,25.90
2018-09-26T11:14:52.589Z,28.87
2018-09-26T11:17:21.177Z,29.60
2018-09-26T11:19:49.765Z,27.17
2018-09-26T11:22:18.371Z,25.10
2018-09-26T11:24:46.910Z,25.98
2018-09-26T11:27:15.559Z,27.67
2018-09-26T11:29:44.158Z,25.68
2018-09-26T11:32:12.739Z,26.14
2018-09-26T11:34:41.340Z,27.72
2018-09-26T11:37:09.878Z,27.39
2018-09-26T11:39:38.450Z,27.97
2018-09-26T11:42:07.022Z,27.95
2018-09-26T11:44:35.696Z,28.39
2018-09-26T11:47:04.201Z,28.33
2018-09-26T11:49:33.185Z,26.54
2018-09-26T11:52:01.768Z,27.90
2018-09-26T11:54:30.342Z,29.70
2018-09-26T11:56:58.890Z,28.94
2018-09-26T11:59:27.493Z,29.19
2018-09-26T12:01:56.067Z,27.99
2018-09-26T12:04:24.689Z,26.44
2018-09-26T12:06:53.215Z,25.23
2018-09-26T12:09:21.776Z,25.94
2018-09-26T12:11:50.310Z,24.90
2018-09-26T12:14:18.910Z,25.92
2018-09-26T12:16:47.446Z,25.07
2018-09-26T12:19:16.048Z,25.38
2018-09-26T12:21:44.701Z,26.76
2018-09-26T12:24:13.290Z,28.70
2018-09-26T12:26:41.835Z,28.38
2018-09-26T12:29:10.438Z,26.44
2018-09-26T12:31:38.990Z,25.19
2018-09-26T12:34:07.639Z,25.94
2018-09-26T12:36:36.153Z,27.59
2018-09-26T12:39:06.421Z,28.49
2018-09-26T12:41:34.979Z,26.92
2018-09-26T12:44:03.581Z,26.81
2018-09-26T12:46:32.114Z,26.13
2018-09-26T12:49:00.732Z,26.37
2018-09-26T12:51:29.349Z,25.39
2018-09-26T12:53:58.252Z,25.34
2018-09-26T12:56:26.698Z,26.76
2018-09-26T12:58:55.805Z,27.54
2018-09-26T13:01:24.531Z,28.69
2018-09-26T13:03:53.129Z,29.37
2018-09-26T13:06:21.747Z,28.90
2018-09-26T13:08:50.297Z,29.17
2018-09-26T13:11:18.842Z,29.02
2018-09-26T13:13:47.410Z,29.45
2018-09-26T13:16:16.020Z,29.66
2018-09-26T13:18:44.573Z,28.82
2018-09-26T13:21:13.106Z,27.46
2018-09-26T13:23:42.435Z,26.45
2018-09-26T13:26:11.762Z,25.81
2018-09-26T13:28:40.275Z,25.16
2018-09-26T13:31:08.956Z,26.54
2018-09-26T13:33:37.446Z,27.11
2018-09-26T13:36:06.167Z,27.85
2018-09-26T13:38:34.681Z,27.34
2018-09-26T13:41:03.261Z,28.18
2018-09-26T13:43:31.814Z,28.22
2018-09-26T13:46:00.423Z,28.60
2018-09-26T13:48:28.946Z,28.93
2018-09-26T13:50:57.517Z,28.60
2018-09-26T13:53:26.064Z,29.42
2018-09-26T13:55:54.667Z,30.27
2018-09-26T13:58:23.374Z,29.37
2018-09-26T14:00:52.170Z,30.59
2018-09-26T14:03:20.922Z,30.86
2018-09-26T14:05:49.509Z,30.53
2018-09-26T14:08:18.059Z,32.02
2018-09-26T14:10:46.729Z,30.40
2018-09-26T14:13:15.257Z,30.69
2018-09-26T14:15:43.849Z,28.85
2018-09-26T14:18:12.456Z,29.90
2018-09-26T14:20:57.244Z,28.65
2018-09-26T14:23:25.862Z,28.92
2018-09-26T14:25:54.535Z,28.28
2018-09-26T14:28:23.228Z,28.91
2018-09-26T14:30:52.286Z,28.19
2018-09-26T14:33:20.944Z,27.51
2018-09-26T14:35:49.562Z,27.52
2018-09-26T14:38:18.332Z,27.52
2018-09-26T14:40:46.950Z,26.96
2018-09-26T14:43:15.583Z,26.88
2018-09-26T14:45:44.387Z,27.07
2018-09-26T14:48:12.930Z,27.83
2018-09-26T14:50:41.573Z,27.91
2018-09-26T14:53:10.231Z,28.11
2018-09-26T14:55:38.889Z,28.44
2018-09-26T14:58:07.835Z,29.46
2018-09-26T15:00:36.578Z,28.98
2018-09-26T15:03:05.207Z,27.59
2018-09-26T15:05:33.865Z,28.55
2018-09-26T15:08:02.484Z,29.03
2018-09-26T15:10:31.550Z,28.48
2018-09-26T15:13:00.183Z,28.81
2018-09-26T15:15:29.162Z,27.96
2018-09-26T15:18:00.045Z,28.00
2018-09-26T15:20:28.765Z,28.93
2018-09-26T15:22:57.397Z,26.36
2018-09-26T15:25:28.163Z,27.78
2018-09-26T15:27:56.946Z,27.64
2018-09-26T15:30:25.969Z,26.80
2018-09-26T15:32:54.566Z,27.08
2018-09-26T15:35:23.335Z,26.55
2018-09-26T15:37:53.590Z,26.22
2018-09-26T15:40:22.707Z,26.22
2018-09-26T15:42:51.487Z,24.55
2018-09-26T15:45:20.145Z,23.75
2018-09-26T15:47:51.322Z,24.51
2018-09-26T15:50:21.170Z,24.53
2018-09-26T15:52:49.802Z,24.66
2018-09-26T15:55:18.432Z,23.26
2018-09-26T15:57:47.131Z,23.23
2018-09-26T16:00:15.780Z,23.00
2018-09-26T16:02:44.515Z,21.44
2018-09-26T16:05:13.166Z,22.40
2018-09-26T16:07:41.723Z,22.56
2018-09-26T16:10:10.309Z,21.79
2018-09-26T16:12:38.872Z,21.43
2018-09-26T16:15:07.463Z,20.62
2018-09-26T16:17:36.003Z,20.28
2018-09-26T16:20:04.719Z,20.17
2018-09-26T16:22:33.275Z,20.10
2018-09-26T16:25:02.173Z,19.45
2018-09-26T16:27:30.878Z,19.73
2018-09-26T16:29:59.689Z,19.60
2018-09-26T16:32:28.252Z,19.25
2018-09-26T16:34:56.836Z,18.74
2018-09-26T16:37:25.731Z,18.79
2018-09-26T16:39:54.291Z,18.50
2018-09-26T16:42:22.930Z,18.31
2018-09-26T16:44:51.527Z,18.00
2018-09-26T16:47:20.398Z,17.61
2018-09-26T16:49:48.986Z,17.39
2018-09-26T16:52:18.397Z,17.15
2018-09-26T16:54:47.369Z,16.95
2018-09-26T16:57:15.958Z,16.87
2018-09-26T16:59:44.518Z,16.65
2018-09-26T17:02:13.849Z,16.18
2018-09-26T17:04:42.457Z,15.95
2018-09-26T17:07:11.070Z,15.72
2018-09-26T17:09:39.633Z,15.25
2018-09-26T17:12:08.263Z,14.94
2018-09-26T17:14:36.818Z,14.70
2018-09-26T17:17:05.563Z,14.46
2018-09-26T17:19:34.222Z,14.28
2018-09-26T17:22:02.812Z,14.09
2018-09-26T17:24:31.374Z,13.83
2018-09-26T17:26:59.938Z,13.68
2018-09-26T17:29:28.607Z,13.40
2018-09-26T17:31:57.462Z,13.42
2018-09-26T17:34:26.079Z,13.07
2018-09-26T17:36:54.728Z,12.83
2018-09-26T17:39:23.286Z,12.61
2018-09-26T17:41:51.911Z,12.30
2018-09-26T17:44:20.490Z,11.92
2018-09-26T17:46:49.074Z,12.00
2018-09-26T17:49:17.670Z,11.83
2018-09-26T17:51:46.223Z,11.91
2018-09-26T17:54:14.819Z,11.65
2018-09-26T17:56:43.377Z,11.64
2018-09-26T17:59:11.944Z,11.38
2018-09-26T18:01:40.534Z,11.24
2018-09-26T18:04:09.136Z,11.20
2018-09-26T18:06:37.718Z,11.05
2018-09-26T18:09:08.972Z,10.95
2018-09-26T18:11:37.559Z,10.88
2018-09-26T18:14:06.222Z,10.88
2018-09-26T18:16:34.810Z,10.71
2018-09-26T18:19:03.381Z,10.62
2018-09-26T18:21:32.010Z,10.68
2018-09-26T18:24:01.446Z,10.61
2018-09-26T18:26:30.037Z,10.60
2018-09-26T18:28:58.586Z,10.62
2018-09-26T18:31:27.686Z,10.47
2018-09-26T18:33:56.217Z,10.49
2018-09-26T18:36:24.827Z,10.42
2018-09-26T18:38:53.474Z,10.28
2018-09-26T18:41:22.027Z,10.31
2018-09-26T18:43:50.580Z,10.35
2018-09-26T18:46:19.139Z,10.29
2018-09-26T18:48:47.722Z,10.23
2018-09-26T18:51:16.296Z,10.10
2018-09-26T18:53:44.858Z,10.00
2018-09-26T18:56:13.394Z,9.91
2018-09-26T18:58:42.038Z,10.10
2018-09-26T19:01:10.598Z,9.92
2018-09-26T19:03:39.149Z,9.93
2018-09-26T19:06:07.736Z,9.99
2018-09-26T19:08:36.314Z,9.92
2018-09-26T19:11:05.066Z,9.82
2018-09-26T19:13:33.682Z,9.85
2018-09-26T19:16:02.213Z,9.77
2018-09-26T19:18:30.782Z,9.68
2018-09-26T19:20:59.360Z,9.60
2018-09-26T19:23:27.930Z,9.41
2018-09-26T19:25:56.511Z,9.53
2018-09-26T19:28:25.065Z,9.49
2018-09-26T19:30:53.634Z,9.46
2018-09-26T19:33:22.227Z,9.46
2018-09-26T19:35:50.872Z,9.49
2018-09-26T19:38:19.450Z,9.32
2018-09-26T19:40:47.991Z,9.20
2018-09-26T19:43:19.632Z,9.02
2018-09-26T19:45:48.267Z,9.11
2018-09-26T19:48:17.279Z,9.22
2018-09-26T19:50:45.831Z,9.12
2018-09-26T19:53:14.418Z,8.96
2018-09-26T19:55:42.987Z,9.02
2018-09-26T19:58:12.474Z,8.85
2018-09-26T20:00:41.034Z,8.89
2018-09-26T20:03:09.633Z,8.98
2018-09-26T20:05:38.206Z,8.93
2018-09-26T20:08:07.127Z,9.08
2018-09-26T20:10:35.677Z,9.00
2018-09-26T20:13:04.270Z,9.01
2018-09-26T20:15:32.818Z,8.94
2018-09-26T20:18:01.497Z,8.82
2018-09-26T20:20:30.065Z,8.90
2018-09-26T20:22:58.663Z,8.87
2018-09-26T20:25:27.212Z,8.89
2018-09-26T20:27:55.810Z,8.76
2018-09-26T20:30:24.350Z,8.76
2018-09-26T20:32:52.974Z,8.60
2018-09-26T20:35:21.541Z,8.78
2018-09-26T20:37:50.086Z,8.78
2018-09-26T20:40:18.627Z,8.75
2018-09-26T20:42:47.201Z,8.65
2018-09-26T20:45:15.816Z,8.59
2018-09-26T20:47:44.341Z,8.58
2018-09-26T20:50:12.874Z,8.60
2018-09-26T20:52:41.442Z,8.61
2018-09-26T20:55:10.007Z,8.47
2018-09-26T20:57:38.857Z,8.43
2018-09-26T21:00:07.471Z,8.42
2018-09-26T21:02:36.065Z,8.36
2018-09-26T21:05:04.861Z,8.45
2018-09-26T21:07:33.410Z,8.33
2018-09-26T21:10:02.007Z,8.40
2018-09-26T21:12:30.557Z,8.56
2018-09-26T21:15:01.006Z,8.50
2018-09-26T21:17:29.598Z,8.48
2018-09-26T21:19:58.145Z,8.53
2018-09-26T21:22:26.696Z,8.52
2018-09-26T21:24:55.255Z,8.37
2018-09-26T21:27:24.614Z,8.10
2018-09-26T21:29:53.194Z,8.01
2018-09-26T21:32:21.748Z,8.14
2018-09-26T21:34:50.314Z,8.13
2018-09-26T21:37:18.862Z,8.17
2018-09-26T21:39:47.515Z,8.06
2018-09-26T21:42:16.068Z,8.00
2018-09-26T21:44:44.662Z,8.05
2018-09-26T21:47:13.590Z,8.09
2018-09-26T21:49:42.167Z,8.02
2018-09-26T21:52:10.729Z,8.02
2018-09-26T21:54:39.299Z,7.93
2018-09-26T21:57:08.106Z,7.91
2018-09-26T21:59:36.665Z,7.89
2018-09-26T22:02:05.226Z,7.81
2018-09-26T22:04:33.779Z,7.78
2018-09-26T22:07:02.334Z,7.83
2018-09-26T22:09:30.897Z,7.66
2018-09-26T22:12:00.447Z,7.73
2018-09-26T22:14:28.997Z,7.81
2018-09-26T22:16:57.546Z,7.69
2018-09-26T22:19:26.170Z,7.64
2018-09-26T22:21:54.721Z,7.73
2018-09-26T22:24:23.310Z,7.62
2018-09-26T22:26:51.849Z,7.67
2018-09-26T22:29:20.418Z,7.69
2018-09-26T22:31:48.957Z,7.73
2018-09-26T22:34:17.546Z,7.51
2018-09-26T22:36:46.093Z,7.55
2018-09-26T22:39:14.687Z,7.55
2018-09-26T22:41:43.229Z,7.49
2018-09-26T22:44:11.794Z,7.38
2018-09-26T22:46:40.331Z,7.28
2018-09-26T22:49:08.897Z,7.17
2018-09-26T22:51:37.463Z,7.20
2018-09-26T22:54:06.037Z,7.30
2018-09-26T22:56:34.671Z,7.28
2018-09-26T22:59:03.271Z,7.44
2018-09-26T23:01:31.992Z,7.40
2018-09-26T23:04:00.562Z,7.40
2018-09-26T23:06:29.131Z,7.43
2018-09-26T23:08:57.697Z,7.32
2018-09-26T23:11:26.249Z,7.24
2018-09-26T23:13:54.830Z,7.21
2018-09-26T23:16:23.369Z,7.08
2018-09-26T23:18:51.974Z,7.10
2018-09-26T23:21:21.207Z,7.06
2018-09-26T23:23:49.791Z,7.00
2018-09-26T23:26:18.330Z,6.92
2018-09-26T23:28:46.882Z,6.87
2018-09-26T23:31:15.435Z,6.88
2018-09-26T23:33:43.998Z,6.89
2018-09-26T23:36:12.526Z,6.98
2018-09-26T23:38:41.095Z,6.98
2018-09-26T23:41:09.694Z,6.99
2018-09-26T23:43:38.229Z,6.94
2018-09-26T23:46:06.906Z,6.95
2018-09-26T23:48:35.882Z,6.88
2018-09-26T23:51:04.449Z,6.88
2018-09-26T23:53:33.034Z,7.08
2018-09-26T23:56:01.606Z,7.01
2018-09-26T23:58:30.146Z,6.89
